Time;durP1;ratioP1;P1;durP2;ratioP2;P2;SDS_P1;SDS_P2;PMS_P1;PMS_P2;Temp;Humidity;BMP_temperature;BMP_pressure;BME280_temperature;BME280_humidity;BME280_pressure;Samples;Min_cycle;Max_cycle;Signal;HPM_P1;HPM_P2
2021/09/13 00:01:20;;;;;;;5.18;2.30;;;20.90;76.30;;;;;;5011991;28;20084;-76
2021/09/13 00:03:45;;;;;;;4.60;1.95;;;20.80;76.30;;;;;;5030175;28;20053;-76
2021/09/13 00:06:11;;;;;;;3.47;1.92;;;20.80;76.50;;;;;;5011686;28;20030;-76
2021/09/13 00:08:36;;;;;;;3.97;2.03;;;20.90;76.80;;;;;;5029584;28;20029;-76
2021/09/13 00:11:02;;;;;;;5.38;2.50;;;20.80;76.70;;;;;;5011351;28;20476;-77
2021/09/13 00:13:27;;;;;;;4.78;2.38;;;20.90;76.70;;;;;;5028976;28;20068;-77
2021/09/13 00:15:53;;;;;;;6.30;2.22;;;20.90;76.70;;;;;;5011504;28;20056;-77
2021/09/13 00:18:18;;;;;;;5.90;1.90;;;20.80;76.80;;;;;;5010602;28;20055;-76
2021/09/13 00:20:44;;;;;;;3.55;2.00;;;20.80;76.70;;;;;;5011637;28;20397;-77
2021/09/13 00:23:09;;;;;;;5.57;1.98;;;20.80;76.50;;;;;;5029141;28;20045;-77
2021/09/13 00:25:35;;;;;;;4.10;1.90;;;20.80;76.50;;;;;;5029206;28;20108;-77
2021/09/13 00:28:01;;;;;;;3.58;1.73;;;20.80;76.50;;;;;;5010915;28;20120;-76
2021/09/13 00:30:26;;;;;;;3.92;2.00;;;20.80;76.50;;;;;;5028751;28;20033;-77
2021/09/13 00:32:52;;;;;;;3.53;1.80;;;20.80;76.50;;;;;;5010867;28;20037;-77
2021/09/13 00:35:17;;;;;;;4.00;1.85;;;20.80;76.60;;;;;;5011071;28;20025;-76
2021/09/13 00:37:43;;;;;;;4.75;2.17;;;20.80;76.50;;;;;;5010982;28;20052;-78
2021/09/13 00:40:09;;;;;;;4.65;2.08;;;20.80;76.70;;;;;;5029296;28;20017;-76
2021/09/13 00:42:35;;;;;;;3.08;1.73;;;20.80;76.80;;;;;;5011664;28;20399;-77
2021/09/13 00:45:02;;;;;;;3.58;1.90;;;20.80;77.40;;;;;;5011563;28;20023;-77
2021/09/13 00:47:27;;;;;;;3.85;2.10;;;20.80;76.70;;;;;;5029007;28;20056;-77
2021/09/13 00:49:54;;;;;;;2.85;1.70;;;20.80;76.90;;;;;;5010800;28;20474;-77
2021/09/13 00:52:19;;;;;;;4.97;1.88;;;20.80;76.90;;;;;;5029507;28;20022;-77
2021/09/13 00:54:46;;;;;;;5.35;1.80;;;20.80;76.60;;;;;;5029368;28;20056;-77
2021/09/13 00:57:13;;;;;;;4.45;1.80;;;20.80;76.60;;;;;;5011174;28;20037;-77
2021/09/13 00:59:39;;;;;;;5.70;2.10;;;20.80;76.50;;;;;;5028807;28;20049;-76
2021/09/13 01:02:04;;;;;;;5.20;2.00;;;20.80;77.00;;;;;;5010568;28;20076;-77
2021/09/13 01:04:30;;;;;;;4.28;2.03;;;20.80;76.90;;;;;;5030986;28;20112;-77
2021/09/13 01:06:56;;;;;;;5.32;2.30;;;20.80;77.60;;;;;;5027484;28;20028;-78
2021/09/13 01:09:22;;;;;;;3.63;1.92;;;20.80;77.10;;;;;;5010640;28;20095;-77
2021/09/13 01:11:48;;;;;;;6.13;1.70;;;20.80;77.10;;;;;;5031516;28;20430;-76
2021/09/13 01:14:16;;;;;;;3.45;1.70;;;20.80;76.50;;;;;;5030886;28;20032;-78
2021/09/13 01:16:41;;;;;;;3.35;1.70;;;20.80;76.10;;;;;;5013486;28;20071;-77
2021/09/13 01:19:07;;;;;;;3.53;1.77;;;20.80;76.20;;;;;;5012731;28;20021;-78
2021/09/13 01:21:34;;;;;;;4.60;2.00;;;20.80;76.10;;;;;;5013718;28;20021;-77
2021/09/13 01:23:59;;;;;;;4.43;1.80;;;20.80;76.40;;;;;;5013416;28;20056;-77
2021/09/13 01:26:25;;;;;;;3.38;1.65;;;20.70;76.80;;;;;;5013228;28;20509;-77
2021/09/13 01:28:50;;;;;;;3.20;1.80;;;20.70;76.80;;;;;;5030426;28;20057;-77
2021/09/13 01:31:16;;;;;;;4.68;1.90;;;20.70;76.60;;;;;;5012997;28;20120;-77
2021/09/13 01:33:42;;;;;;;3.67;1.98;;;20.70;76.00;;;;;;5030588;28;20120;-79
2021/09/13 01:36:07;;;;;;;4.50;1.80;;;20.70;76.20;;;;;;5012986;28;20117;-78
2021/09/13 01:38:33;;;;;;;4.22;1.80;;;20.70;76.40;;;;;;5030043;28;20033;-77
2021/09/13 01:40:58;;;;;;;4.55;1.67;;;20.70;76.30;;;;;;5012807;28;20032;-77
2021/09/13 01:43:24;;;;;;;4.18;1.67;;;20.70;75.90;;;;;;5012020;28;20148;-77
2021/09/13 01:45:50;;;;;;;3.47;1.70;;;20.70;76.60;;;;;;5012224;28;20025;-77
2021/09/13 01:48:15;;;;;;;4.35;1.63;;;20.70;76.20;;;;;;5012008;28;20649;-78
2021/09/13 01:50:41;;;;;;;4.28;1.65;;;20.70;76.60;;;;;;5030077;28;20059;-77
2021/09/13 01:53:07;;;;;;;4.25;1.80;;;20.70;76.40;;;;;;5012776;28;20048;-77
2021/09/13 01:55:32;;;;;;;4.65;1.90;;;20.70;75.90;;;;;;5030439;28;20091;-78
2021/09/13 01:57:58;;;;;;;5.22;1.67;;;20.70;76.20;;;;;;5012308;28;20064;-76
2021/09/13 02:00:24;;;;;;;3.45;1.60;;;20.70;76.20;;;;;;5029955;28;20092;-77
2021/09/13 02:02:49;;;;;;;4.50;1.90;;;20.70;75.90;;;;;;5012438;28;20105;-77
2021/09/13 02:05:15;;;;;;;3.53;1.63;;;20.70;76.10;;;;;;5027956;28;20203;-77
2021/09/13 02:07:40;;;;;;;3.28;1.40;;;20.70;75.60;;;;;;5024534;28;20029;-77
2021/09/13 02:10:07;;;;;;;4.22;1.65;;;20.70;75.90;;;;;;5011017;28;20033;-76
2021/09/13 02:12:32;;;;;;;5.18;1.80;;;20.60;75.90;;;;;;5010939;28;20541;-76
2021/09/13 02:14:58;;;;;;;3.42;1.83;;;20.70;76.00;;;;;;5028757;28;20044;-78
2021/09/13 02:17:23;;;;;;;4.35;1.73;;;20.70;76.00;;;;;;5009926;28;20029;-77
2021/09/13 02:19:49;;;;;;;3.85;1.80;;;20.70;75.70;;;;;;5009802;28;20029;-77
2021/09/13 02:22:15;;;;;;;3.92;1.50;;;20.70;75.70;;;;;;5010575;28;20036;-77
2021/09/13 02:24:41;;;;;;;3.50;1.40;;;20.70;75.60;;;;;;5010190;28;20026;-77
2021/09/13 02:27:07;;;;;;;4.82;2.20;;;20.70;76.00;;;;;;5010388;28;20063;-77
2021/09/13 02:29:33;;;;;;;4.40;1.52;;;20.60;75.90;;;;;;5009256;28;20036;-77
2021/09/13 02:31:59;;;;;;;4.07;1.75;;;20.70;76.00;;;;;;5009754;28;20032;-76
2021/09/13 02:34:24;;;;;;;3.17;1.50;;;20.60;75.90;;;;;;5027288;28;20566;-77
2021/09/13 02:36:50;;;;;;;2.95;1.40;;;20.70;76.00;;;;;;5009772;28;20103;-76
2021/09/13 02:39:15;;;;;;;3.63;1.40;;;20.70;76.60;;;;;;5028034;28;20061;-77
2021/09/13 02:41:41;;;;;;;4.78;1.40;;;20.60;75.80;;;;;;5009862;28;20873;-77
2021/09/13 02:44:06;;;;;;;5.45;1.58;;;20.60;75.80;;;;;;5010719;28;20033;-77
2021/09/13 02:46:32;;;;;;;5.53;1.60;;;20.60;75.70;;;;;;5010812;28;20033;-78
2021/09/13 02:48:57;;;;;;;3.90;1.30;;;20.70;75.70;;;;;;5002357;28;20030;-76
2021/09/13 02:51:23;;;;;;;4.00;1.48;;;20.60;75.70;;;;;;5010147;28;20498;-77
2021/09/13 02:53:49;;;;;;;4.18;1.40;;;20.70;75.90;;;;;;5010295;28;20044;-76
2021/09/13 02:56:14;;;;;;;3.60;1.33;;;20.70;75.60;;;;;;5027460;28;20029;-77
2021/09/13 02:58:40;;;;;;;4.05;1.23;;;20.60;75.60;;;;;;5026989;28;20069;-76
2021/09/13 03:01:05;;;;;;;4.18;1.48;;;20.60;75.70;;;;;;5027473;28;20028;-77
2021/09/13 03:03:31;;;;;;;4.00;1.33;;;20.70;75.70;;;;;;5026971;28;20560;-76
2021/09/13 03:05:56;;;;;;;4.30;1.40;;;20.60;75.50;;;;;;5009269;28;20509;-77
2021/09/13 03:08:22;;;;;;;4.10;1.75;;;20.60;75.70;;;;;;5010357;28;20503;-77
2021/09/13 03:10:47;;;;;;;3.67;1.25;;;20.60;75.70;;;;;;5010199;28;20059;-77
2021/09/13 03:13:14;;;;;;;3.20;1.25;;;20.60;75.40;;;;;;5011434;28;20660;-78
2021/09/13 03:15:39;;;;;;;2.90;1.30;;;20.60;75.70;;;;;;5011545;28;20395;-77
2021/09/13 03:18:05;;;;;;;3.95;1.33;;;20.60;75.90;;;;;;5010829;28;20025;-76
2021/09/13 03:20:30;;;;;;;3.85;1.50;;;20.60;75.90;;;;;;5011504;28;20021;-78
2021/09/13 03:22:56;;;;;;;2.35;1.20;;;20.60;76.40;;;;;;5011436;28;20095;-77
2021/09/13 03:25:23;;;;;;;4.22;1.33;;;20.60;76.10;;;;;;5010969;28;20029;-78
2021/09/13 03:27:49;;;;;;;3.17;1.30;;;20.60;76.30;;;;;;5009929;28;20390;-76
2021/09/13 03:30:15;;;;;;;3.75;1.65;;;20.60;75.60;;;;;;5027875;28;20025;-77
2021/09/13 03:32:40;;;;;;;3.78;1.70;;;20.50;76.20;;;;;;5027790;28;20822;-78
2021/09/13 03:35:07;;;;;;;4.35;1.50;;;20.60;75.70;;;;;;5009453;28;20061;-76
2021/09/13 03:37:32;;;;;;;4.32;1.45;;;20.50;75.70;;;;;;5026142;28;20574;-77
2021/09/13 03:39:58;;;;;;;3.67;1.40;;;20.60;76.10;;;;;;5008619;28;20080;-76
2021/09/13 03:42:23;;;;;;;7.15;1.30;;;20.60;76.50;;;;;;5027779;28;20051;-77
2021/09/13 03:44:49;;;;;;;3.28;1.30;;;20.50;76.90;;;;;;5029110;28;20029;-77
2021/09/13 03:47:15;;;;;;;3.75;1.40;;;20.60;76.70;;;;;;5016770;28;20037;-77
2021/09/13 03:49:40;;;;;;;3.50;1.30;;;20.50;76.30;;;;;;4999919;28;20057;-78
2021/09/13 03:52:08;;;;;;;3.50;1.63;;;20.50;76.90;;;;;;5009950;28;20018;-77
2021/09/13 03:54:35;;;;;;;3.60;1.30;;;20.60;77.10;;;;;;5010895;28;20034;-76
2021/09/13 03:57:00;;;;;;;3.97;1.73;;;20.50;76.90;;;;;;5028017;28;20025;-78
2021/09/13 03:59:26;;;;;;;6.18;1.40;;;20.50;75.70;;;;;;5009850;28;20490;-78
2021/09/13 04:01:51;;;;;;;3.58;1.50;;;20.50;76.40;;;;;;5020355;28;20084;-77
2021/09/13 04:04:21;;;;;;;3.55;1.20;;;20.50;77.30;;;;;;5016931;28;20029;-78
2021/09/13 04:06:50;;;;;;;4.32;1.40;;;20.50;76.10;;;;;;5006914;28;20032;-77
2021/09/13 04:11:58;;;;;;;7.38;1.50;;;20.50;76.00;;;;;;5025454;28;20064;-78
2021/09/13 04:14:29;;;;;;;4.05;1.13;;;20.50;76.70;;;;;;5008244;28;20041;-77
2021/09/13 04:16:56;;;;;;;3.88;1.20;;;20.50;76.20;;;;;;5004266;28;20033;-76
2021/09/13 04:19:23;;;;;;;3.17;1.30;;;20.50;76.20;;;;;;5006113;28;20064;-77
2021/09/13 04:21:50;;;;;;;4.65;1.38;;;20.50;76.60;;;;;;5008643;28;20022;-76
2021/09/13 04:24:16;;;;;;;3.28;1.30;;;20.50;76.40;;;;;;5008608;28;20029;-76
2021/09/13 04:26:42;;;;;;;4.50;1.42;;;20.50;75.60;;;;;;5026939;28;20407;-77
2021/09/13 04:29:09;;;;;;;3.50;1.20;;;20.50;76.00;;;;;;5008455;28;20606;-76
2021/09/13 04:31:35;;;;;;;4.47;1.50;;;20.50;75.90;;;;;;5016703;28;20479;-77
2021/09/13 04:34:01;;;;;;;4.30;1.70;;;20.50;76.40;;;;;;5009564;28;20057;-77
2021/09/13 04:36:27;;;;;;;3.53;1.40;;;20.50;76.90;;;;;;5006266;28;20022;-76
2021/09/13 04:38:53;;;;;;;5.22;1.40;;;20.60;76.40;;;;;;5021008;28;20033;-77
2021/09/13 04:41:18;;;;;;;4.28;1.42;;;20.60;76.20;;;;;;5028662;28;20543;-76
2021/09/13 04:43:44;;;;;;;5.88;1.50;;;20.50;76.10;;;;;;5033484;28;20017;-77
2021/09/13 04:46:10;;;;;;;2.40;1.45;;;20.50;76.10;;;;;;5031944;28;20029;-77
2021/09/13 04:48:35;;;;;;;3.85;1.50;;;20.60;76.30;;;;;;5032705;28;20489;-76
2021/09/13 04:51:01;;;;;;;4.07;1.70;;;20.50;76.10;;;;;;5013431;28;20491;-77
2021/09/13 04:53:26;;;;;;;4.95;1.50;;;20.50;75.50;;;;;;5011955;28;20125;-78
2021/09/13 04:55:53;;;;;;;3.45;1.35;;;20.50;75.40;;;;;;5012512;28;20033;-77
2021/09/13 04:58:18;;;;;;;4.15;1.73;;;20.50;75.00;;;;;;5012354;28;20033;-78
2021/09/13 05:00:44;;;;;;;4.13;1.50;;;20.50;74.70;;;;;;5012457;28;20048;-76
2021/09/13 05:03:09;;;;;;;4.70;1.60;;;20.50;74.60;;;;;;5012213;28;20040;-77
2021/09/13 05:05:35;;;;;;;7.70;1.83;;;20.50;74.90;;;;;;5012080;28;20033;-75
2021/09/13 05:08:01;;;;;;;4.18;1.75;;;20.50;74.70;;;;;;5011404;28;20441;-76
2021/09/13 05:10:26;;;;;;;3.53;1.40;;;20.50;74.40;;;;;;5029437;28;20498;-75
2021/09/13 05:12:52;;;;;;;5.43;1.90;;;20.50;75.00;;;;;;5012014;28;20040;-76
2021/09/13 05:15:18;;;;;;;6.25;2.00;;;20.60;75.40;;;;;;5010361;28;20115;-72
2021/09/13 05:17:44;;;;;;;8.40;2.15;;;20.70;75.70;;;;;;5005717;28;20529;-75
2021/09/13 05:20:10;;;;;;;6.38;1.90;;;20.70;75.40;;;;;;5029982;28;20036;-78
2021/09/13 05:22:36;;;;;;;13.43;2.38;;;20.70;74.80;;;;;;5007236;28;20476;-76
2021/09/13 05:25:03;;;;;;;8.52;2.40;;;20.70;75.50;;;;;;5007506;28;20022;-75
2021/09/13 05:27:29;;;;;;;7.00;2.22;;;20.70;76.20;;;;;;5011475;28;20495;-77
2021/09/13 05:29:54;;;;;;;7.07;2.10;;;20.90;76.00;;;;;;5010441;28;20049;-74
2021/09/13 05:32:20;;;;;;;7.45;2.28;;;20.70;75.50;;;;;;5010574;28;20040;-76
2021/09/13 05:34:45;;;;;;;8.82;2.60;;;20.70;74.60;;;;;;4999776;28;20037;-74
2021/09/13 05:37:11;;;;;;;8.50;3.63;;;20.70;74.30;;;;;;5010759;28;20060;-76
2021/09/13 05:39:37;;;;;;;8.48;3.63;;;20.50;73.20;;;;;;4992125;28;20037;-76
2021/09/13 05:42:03;;;;;;;8.00;3.60;;;20.40;73.20;;;;;;5009462;28;20026;-77
2021/09/13 05:44:29;;;;;;;9.27;3.78;;;20.30;73.20;;;;;;4992207;28;20056;-77
2021/09/13 05:46:54;;;;;;;10.57;3.95;;;20.30;73.30;;;;;;4992137;28;20037;-77
2021/09/13 05:49:20;;;;;;;9.63;3.72;;;20.30;72.90;;;;;;4991117;28;20034;-77
2021/09/13 05:51:45;;;;;;;8.85;4.30;;;20.30;73.50;;;;;;5008369;28;20034;-74
2021/09/13 05:54:12;;;;;;;10.02;3.80;;;20.30;73.00;;;;;;5014795;28;20052;-76
2021/09/13 05:56:38;;;;;;;8.25;4.22;;;20.20;73.20;;;;;;5028639;28;20029;-77
2021/09/13 05:59:04;;;;;;;8.75;4.90;;;20.20;72.90;;;;;;5011452;28;20036;-76
2021/09/13 06:04:00;;;;;;;8.70;4.43;;;20.00;73.40;;;;;;5089857;22;20046;-69
2021/09/13 06:06:25;;;;;;;10.02;4.82;;;20.10;73.80;;;;;;5013672;28;20501;-68
2021/09/13 06:08:51;;;;;;;7.72;3.92;;;20.20;73.40;;;;;;5032110;28;20038;-67
2021/09/13 06:11:16;;;;;;;6.60;3.50;;;20.20;73.20;;;;;;5031892;28;20025;-68
2021/09/13 06:13:42;;;;;;;8.75;4.10;;;20.20;73.30;;;;;;5014585;28;20033;-68
2021/09/13 06:16:08;;;;;;;6.53;3.70;;;20.30;73.30;;;;;;5015174;28;20025;-68
2021/09/13 06:18:37;;;;;;;9.52;4.07;;;20.30;73.50;;;;;;5032378;28;20021;-68
2021/09/13 06:21:04;;;;;;;6.22;3.50;;;20.30;73.30;;;;;;5015174;28;20117;-68
2021/09/13 06:23:30;;;;;;;6.90;3.70;;;20.30;73.40;;;;;;5032690;28;20072;-68
2021/09/13 06:25:55;;;;;;;8.00;3.40;;;20.30;73.20;;;;;;5032720;28;20471;-68
2021/09/13 06:28:21;;;;;;;8.18;3.42;;;20.30;73.50;;;;;;5032423;28;20045;-68
2021/09/13 06:30:47;;;;;;;6.07;3.75;;;20.30;73.60;;;;;;5032699;28;20033;-68
2021/09/13 06:33:13;;;;;;;7.15;3.47;;;20.30;73.60;;;;;;5014582;28;20029;-68
2021/09/13 06:35:39;;;;;;;6.90;3.75;;;20.20;73.60;;;;;;5032588;28;20387;-68
2021/09/13 06:38:04;;;;;;;6.47;3.70;;;20.20;73.60;;;;;;5032171;28;20104;-68
2021/09/13 06:40:30;;;;;;;6.13;3.35;;;20.20;73.90;;;;;;5032490;28;20017;-68
2021/09/13 06:42:56;;;;;;;6.97;3.70;;;20.20;74.00;;;;;;5032362;28;20368;-68
2021/09/13 06:45:23;;;;;;;6.78;3.40;;;20.20;74.30;;;;;;5014697;28;20021;-68
2021/09/13 06:47:49;;;;;;;6.47;3.58;;;20.20;74.10;;;;;;5032178;28;20032;-68
2021/09/13 06:50:20;;;;;;;7.07;3.67;;;20.30;74.20;;;;;;5032250;28;20022;-68
2021/09/13 06:52:47;;;;;;;7.43;3.90;;;20.20;74.30;;;;;;5032612;28;20032;-68
2021/09/13 06:55:13;;;;;;;7.63;3.97;;;20.30;74.40;;;;;;5032316;28;20091;-68
2021/09/13 06:57:39;;;;;;;6.85;3.72;;;20.20;74.10;;;;;;5032132;28;20021;-68
2021/09/13 07:00:07;;;;;;;7.97;4.05;;;20.20;74.30;;;;;;5031248;28;20021;-68
2021/09/13 07:02:33;;;;;;;8.55;4.35;;;20.20;74.60;;;;;;5031710;28;20042;-68
2021/09/13 07:04:58;;;;;;;7.78;4.35;;;20.20;74.70;;;;;;5032016;28;20025;-68
2021/09/13 07:07:24;;;;;;;7.88;4.50;;;20.30;74.70;;;;;;5014298;28;20120;-69
2021/09/13 07:09:49;;;;;;;8.43;3.97;;;20.30;74.70;;;;;;5031759;28;20025;-68
2021/09/13 07:12:16;;;;;;;8.85;4.32;;;20.30;75.10;;;;;;5014167;28;20061;-68
2021/09/13 07:14:42;;;;;;;8.30;4.18;;;20.30;75.70;;;;;;5013910;28;20438;-68
2021/09/13 07:17:07;;;;;;;8.48;4.50;;;20.30;74.90;;;;;;5014154;28;20021;-68
2021/09/13 07:19:34;;;;;;;8.23;4.30;;;20.30;74.80;;;;;;5031597;28;20431;-68
2021/09/13 07:21:59;;;;;;;8.90;4.18;;;20.30;75.00;;;;;;5014107;28;20022;-68
2021/09/13 07:24:25;;;;;;;10.20;4.75;;;20.30;75.00;;;;;;5014078;28;20025;-68
2021/09/13 07:26:50;;;;;;;8.30;4.25;;;20.30;74.90;;;;;;5014037;28;20026;-68
2021/09/13 07:29:16;;;;;;;9.13;4.72;;;20.30;75.00;;;;;;5014034;28;20364;-68
2021/09/13 07:31:42;;;;;;;7.63;4.30;;;20.20;75.00;;;;;;5031824;28;20021;-68
2021/09/13 07:34:07;;;;;;;7.32;4.38;;;20.20;74.90;;;;;;5031648;28;20116;-67
2021/09/13 07:36:33;;;;;;;7.63;4.05;;;20.20;75.00;;;;;;5031682;28;20037;-68
2021/09/13 07:38:59;;;;;;;8.75;4.28;;;20.20;75.10;;;;;;5031292;28;20080;-68
2021/09/13 07:41:25;;;;;;;7.35;4.07;;;20.20;75.40;;;;;;5031536;28;20105;-68
2021/09/13 07:43:51;;;;;;;8.27;4.40;;;20.30;75.00;;;;;;5031750;28;20041;-68
2021/09/13 07:46:16;;;;;;;8.73;4.95;;;20.20;74.90;;;;;;5013947;28;20018;-68
2021/09/13 07:48:42;;;;;;;9.45;4.85;;;20.20;74.80;;;;;;5013873;28;20029;-68
2021/09/13 07:51:07;;;;;;;8.02;4.15;;;20.20;75.20;;;;;;5013827;28;20083;-68
2021/09/13 07:53:33;;;;;;;10.07;5.22;;;20.20;75.30;;;;;;5014036;28;20029;-68
2021/09/13 07:55:59;;;;;;;9.35;5.43;;;20.20;74.90;;;;;;5013724;28;20483;-67
2021/09/13 07:58:24;;;;;;;9.52;5.20;;;20.20;75.00;;;;;;5013500;28;20037;-68
2021/09/13 08:00:50;;;;;;;10.57;5.22;;;20.20;75.10;;;;;;5031521;28;20498;-68
2021/09/13 08:03:15;;;;;;;7.85;4.57;;;20.20;75.30;;;;;;5013578;28;20386;-68
2021/09/13 08:05:41;;;;;;;10.10;5.45;;;20.20;75.40;;;;;;5013722;28;20372;-68
2021/09/13 08:08:07;;;;;;;10.45;5.30;;;20.20;75.20;;;;;;5031147;28;20406;-68
2021/09/13 08:10:32;;;;;;;7.68;4.70;;;20.20;75.10;;;;;;5031857;28;20158;-68
2021/09/13 08:12:58;;;;;;;9.07;4.88;;;20.20;75.40;;;;;;5034983;28;20040;-68
2021/09/13 08:15:24;;;;;;;8.52;4.78;;;20.20;75.50;;;;;;5017375;28;20026;-68
2021/09/13 08:17:50;;;;;;;8.65;4.40;;;20.20;75.40;;;;;;5034810;28;20021;-66
2021/09/13 08:20:16;;;;;;;8.57;5.13;;;20.20;75.30;;;;;;5035170;28;20025;-69
2021/09/13 08:22:41;;;;;;;7.68;4.60;;;20.20;75.20;;;;;;5034868;28;20402;-68
2021/09/13 08:25:07;;;;;;;8.25;4.35;;;20.20;75.20;;;;;;5035040;28;20037;-68
2021/09/13 08:27:33;;;;;;;7.35;4.20;;;20.20;75.10;;;;;;5034920;28;20487;-68
2021/09/13 08:29:58;;;;;;;7.53;4.30;;;20.20;75.00;;;;;;5034716;28;20030;-68
2021/09/13 08:32:24;;;;;;;7.05;4.10;;;20.30;75.20;;;;;;5034793;28;20021;-68
2021/09/13 08:34:51;;;;;;;6.60;3.67;;;20.20;75.10;;;;;;5035042;28;20029;-68
2021/09/13 08:37:17;;;;;;;7.47;4.05;;;20.30;75.00;;;;;;5016971;28;20032;-68
2021/09/13 08:39:42;;;;;;;7.13;3.72;;;20.30;75.70;;;;;;5034487;28;20022;-68
2021/09/13 08:42:08;;;;;;;6.30;3.55;;;20.30;75.10;;;;;;5034833;28;20296;-68
2021/09/13 08:44:34;;;;;;;6.60;3.80;;;20.30;75.00;;;;;;5034662;28;20479;-68
2021/09/13 08:47:07;;;;;;;6.68;3.38;;;20.30;75.00;;;;;;5034519;28;20025;-68
2021/09/13 08:49:39;;;;;;;6.28;3.42;;;20.30;74.70;;;;;;5034322;28;20364;-68
2021/09/13 08:52:06;;;;;;;6.25;3.65;;;20.30;74.90;;;;;;5016675;28;20117;-69
2021/09/13 08:54:34;;;;;;;7.00;3.80;;;20.30;74.60;;;;;;5016698;28;20025;-68
2021/09/13 08:57:03;;;;;;;7.70;3.58;;;20.30;74.70;;;;;;5034449;28;20029;-68
2021/09/13 08:59:29;;;;;;;8.88;3.90;;;20.30;74.90;;;;;;5034034;28;20017;-69
2021/09/13 09:01:55;;;;;;;6.72;3.30;;;20.30;74.20;;;;;;5034061;28;20025;-68
2021/09/13 09:04:22;;;;;;;6.15;3.35;;;20.40;74.70;;;;;;5016487;28;20505;-69
2021/09/13 09:06:48;;;;;;;5.50;3.03;;;20.40;74.80;;;;;;5016471;28;20026;-69
2021/09/13 09:09:17;;;;;;;5.93;3.20;;;20.40;74.80;;;;;;5016250;28;20120;-69
2021/09/13 09:12:02;;;;;;;5.38;2.83;;;20.40;74.40;;;;;;5034094;28;20036;-68
2021/09/13 09:14:39;;;;;;;5.82;2.80;;;20.40;74.00;;;;;;5034012;28;20089;-68
2021/09/13 09:17:25;;;;;;;5.32;2.72;;;20.50;73.90;;;;;;5016449;28;20032;-68
2021/09/13 09:20:05;;;;;;;5.78;2.70;;;20.40;73.60;;;;;;5033810;28;20517;-68
2021/09/13 09:22:31;;;;;;;6.15;3.03;;;20.40;73.60;;;;;;5015554;28;20026;-68
2021/09/13 09:24:58;;;;;;;6.13;3.10;;;20.40;73.40;;;;;;5033831;28;20414;-69
2021/09/13 09:27:25;;;;;;;6.65;3.05;;;20.40;73.70;;;;;;5033887;28;20052;-69
2021/09/13 09:29:52;;;;;;;6.32;2.90;;;20.40;73.70;;;;;;5033522;28;20022;-68
2021/09/13 09:32:26;;;;;;;6.00;2.70;;;20.40;74.40;;;;;;5016182;28;20021;-68
2021/09/13 09:34:53;;;;;;;5.75;2.88;;;20.40;74.10;;;;;;5016081;28;20053;-68
2021/09/13 09:37:19;;;;;;;6.22;2.65;;;20.40;73.80;;;;;;5033591;28;20029;-68
2021/09/13 09:39:53;;;;;;;5.13;2.75;;;20.50;73.70;;;;;;5015569;28;20025;-68
2021/09/13 09:42:34;;;;;;;6.07;2.50;;;20.40;73.60;;;;;;5015847;28;20127;-68
2021/09/13 09:45:02;;;;;;;5.63;2.38;;;20.40;73.60;;;;;;5015808;28;20021;-68
2021/09/13 09:47:28;;;;;;;4.53;2.40;;;20.50;74.00;;;;;;5015789;28;20030;-67
2021/09/13 09:49:56;;;;;;;4.60;2.28;;;20.50;74.40;;;;;;5033075;28;20032;-68
2021/09/13 09:52:39;;;;;;;5.28;2.35;;;20.50;74.10;;;;;;5033371;28;20026;-68
2021/09/13 09:55:14;;;;;;;4.40;2.25;;;20.60;73.70;;;;;;5015609;28;20025;-68
2021/09/13 09:57:43;;;;;;;5.28;2.20;;;20.60;73.60;;;;;;5033239;28;20108;-69
2021/09/13 10:00:28;;;;;;;4.82;2.17;;;20.50;73.40;;;;;;5015154;28;20395;-68
2021/09/13 10:02:55;;;;;;;5.68;2.00;;;20.60;73.60;;;;;;5032981;28;20039;-67
2021/09/13 10:05:28;;;;;;;4.53;1.92;;;20.60;73.30;;;;;;5033130;28;20025;-68
2021/09/13 10:07:54;;;;;;;4.40;1.92;;;20.80;73.70;;;;;;5015037;28;20136;-67
2021/09/13 10:10:29;;;;;;;4.00;1.85;;;20.90;73.80;;;;;;5033131;28;20082;-68
2021/09/13 10:12:55;;;;;;;5.22;1.90;;;21.00;72.90;;;;;;5032396;28;20033;-68
2021/09/13 10:15:21;;;;;;;5.50;2.10;;;21.20;71.80;;;;;;5032931;28;20483;-68
2021/09/13 10:17:47;;;;;;;4.95;2.10;;;21.30;71.50;;;;;;5032928;28;20026;-68
2021/09/13 10:20:13;;;;;;;4.45;1.83;;;21.20;71.40;;;;;;5032648;28;20017;-68
2021/09/13 10:22:45;;;;;;;3.80;1.58;;;21.10;71.80;;;;;;5032701;28;20031;-68
2021/09/13 10:25:11;;;;;;;4.28;1.90;;;21.10;72.50;;;;;;5032846;28;20025;-68
2021/09/13 10:27:39;;;;;;;4.25;1.90;;;21.00;72.70;;;;;;5032665;28;20026;-68
2021/09/13 10:30:12;;;;;;;5.53;1.95;;;21.00;72.60;;;;;;5032387;28;20360;-68
2021/09/13 10:32:41;;;;;;;3.55;1.88;;;21.00;73.20;;;;;;5032622;28;20018;-68
2021/09/13 10:35:07;;;;;;;4.05;1.92;;;20.90;72.90;;;;;;5031598;28;20399;-69
2021/09/13 10:37:49;;;;;;;4.28;2.03;;;20.90;73.00;;;;;;5014657;28;20455;-68
2021/09/13 10:40:14;;;;;;;4.30;1.60;;;21.10;72.40;;;;;;5014786;28;20232;-68
2021/09/13 10:42:42;;;;;;;4.43;2.00;;;21.30;71.40;;;;;;5032301;28;20511;-68
2021/09/13 10:45:36;;;;;;;3.97;1.80;;;21.40;70.60;;;;;;5032463;28;20140;-68
2021/09/13 10:48:08;;;;;;;3.92;1.67;;;21.40;70.70;;;;;;5014579;28;20159;-68
2021/09/13 10:50:33;;;;;;;;;;;21.20;71.40;;;;;;5032791;28;20052;-69
2021/09/13 10:53:00;;;;;;;3.75;2.10;;;21.20;72.90;;;;;;5032226;28;20378;-68
2021/09/13 10:55:29;;;;;;;3.58;2.10;;;21.10;72.40;;;;;;5014610;28;20036;-68
2021/09/13 10:58:07;;;;;;;4.35;1.85;;;21.00;73.00;;;;;;5031799;28;20487;-68
2021/09/13 11:00:39;;;;;;;4.03;1.70;;;20.90;73.10;;;;;;5032127;28;20160;-68
2021/09/13 11:03:23;;;;;;;5.47;2.15;;;20.90;72.90;;;;;;5031974;28;20021;-68
2021/09/13 11:06:07;;;;;;;3.00;1.67;;;20.90;73.40;;;;;;5014434;28;20029;-68
2021/09/13 11:08:52;;;;;;;3.58;1.70;;;20.80;73.40;;;;;;5031705;28;20509;-69
2021/09/13 11:11:25;;;;;;;4.55;1.98;;;20.80;73.60;;;;;;5032058;28;20025;-68
2021/09/13 11:14:00;;;;;;;4.95;1.90;;;20.80;73.80;;;;;;5013923;28;20030;-68
2021/09/13 11:16:28;;;;;;;4.65;2.15;;;20.80;74.00;;;;;;5031930;28;20398;-68
2021/09/13 11:18:54;;;;;;;4.18;1.95;;;20.80;74.10;;;;;;5031497;28;20033;-68
2021/09/13 11:21:23;;;;;;;5.13;1.92;;;20.80;74.60;;;;;;5032114;28;20026;-69
2021/09/13 11:24:06;;;;;;;4.03;2.03;;;20.80;74.40;;;;;;5014161;28;20022;-68
2021/09/13 11:26:36;;;;;;;4.00;1.98;;;20.80;74.50;;;;;;5014180;28;20060;-69
2021/09/13 11:29:10;;;;;;;4.93;2.22;;;20.80;74.40;;;;;;5031306;28;20025;-69
2021/09/13 11:31:53;;;;;;;4.93;2.25;;;20.80;74.20;;;;;;5031689;28;20040;-67
2021/09/13 11:34:22;;;;;;;4.38;1.80;;;20.80;74.60;;;;;;5031772;28;20036;-68
2021/09/13 11:36:53;;;;;;;4.45;2.10;;;20.80;74.20;;;;;;5031708;28;20055;-68
2021/09/13 11:39:19;;;;;;;;;;;20.80;74.20;;;;;;5014062;28;20026;-68
2021/09/13 11:42:00;;;;;;;3.85;2.00;;;20.80;74.00;;;;;;5031449;28;20565;-68
2021/09/13 11:44:26;;;;;;;;;;;20.80;73.60;;;;;;5032111;28;20052;-68
2021/09/13 11:46:56;;;;;;;5.20;2.15;;;20.80;73.30;;;;;;5034358;28;19905;-68
2021/09/13 11:49:27;;;;;;;4.55;1.80;;;20.80;73.50;;;;;;5035442;28;20036;-68
2021/09/13 11:52:04;;;;;;;3.03;1.90;;;20.80;73.60;;;;;;5035508;28;20149;-68
2021/09/13 11:54:30;;;;;;;3.67;2.00;;;20.80;73.70;;;;;;5035712;28;20080;-68
2021/09/13 11:56:56;;;;;;;4.60;2.10;;;20.80;74.00;;;;;;5035576;28;20024;-68
2021/09/13 11:59:25;;;;;;;3.55;1.80;;;20.80;73.50;;;;;;5035254;28;20026;-68
2021/09/13 12:01:59;;;;;;;4.50;2.03;;;20.80;74.20;;;;;;5035422;28;20026;-67
2021/09/13 12:04:25;;;;;;;3.78;1.90;;;20.80;74.00;;;;;;5019167;28;20031;-68
2021/09/13 12:07:11;;;;;;;4.50;2.17;;;20.80;73.70;;;;;;5035541;28;20104;-68
2021/09/13 12:09:39;;;;;;;4.72;1.95;;;20.80;74.10;;;;;;5017358;28;20032;-68
2021/09/13 12:12:06;;;;;;;3.30;1.70;;;20.80;73.90;;;;;;5035194;28;20025;-69
2021/09/13 12:14:33;;;;;;;4.45;2.08;;;20.70;73.90;;;;;;5034972;28;20025;-68
2021/09/13 12:17:13;;;;;;;5.13;2.30;;;20.80;73.80;;;;;;5017430;28;20042;-68
2021/09/13 12:19:41;;;;;;;4.97;1.83;;;20.70;73.50;;;;;;5034841;28;20504;-68
2021/09/13 12:22:08;;;;;;;6.00;2.30;;;20.70;73.80;;;;;;5017281;28;20021;-68
2021/09/13 12:24:34;;;;;;;4.10;2.10;;;20.70;73.80;;;;;;5035112;28;20025;-67
2021/09/13 12:27:14;;;;;;;4.30;2.00;;;20.70;73.80;;;;;;5034929;28;20096;-68
2021/09/13 12:29:50;;;;;;;3.55;1.80;;;20.70;73.70;;;;;;5034735;28;20028;-69
2021/09/13 12:32:23;;;;;;;4.65;2.05;;;20.70;73.60;;;;;;5034842;28;20025;-68
2021/09/13 12:35:04;;;;;;;4.05;2.28;;;20.70;73.30;;;;;;5035055;28;20028;-68
2021/09/13 12:37:52;;;;;;;;;;;20.70;73.30;;;;;;5035204;28;20021;-68
2021/09/13 12:40:18;;;;;;;3.90;2.25;;;20.70;73.10;;;;;;5017021;28;19967;-68
2021/09/13 12:42:56;;;;;;;4.40;2.40;;;20.70;72.80;;;;;;5034794;28;20316;-68
2021/09/13 12:45:24;;;;;;;6.13;2.08;;;20.70;72.80;;;;;;5034699;28;20108;-68
2021/09/13 12:47:56;;;;;;;4.85;2.10;;;20.70;73.50;;;;;;5034209;28;20368;-64
2021/09/13 12:50:32;;;;;;;4.63;1.98;;;20.70;73.10;;;;;;5034694;28;20028;-68
2021/09/13 12:53:10;;;;;;;4.20;1.95;;;20.80;73.60;;;;;;5034444;28;20032;-68
2021/09/13 12:55:41;;;;;;;4.13;2.00;;;20.80;74.00;;;;;;5034663;28;20230;-68